Time;durP1;ratioP1;P1;durP2;ratioP2;P2;SDS_P1;SDS_P2;PMS_P1;PMS_P2;Temp;Humidity;BMP_temperature;BMP_pressure;BME280_temperature;BME280_humidity;BME280_pressure;Samples;Min_cycle;Max_cycle;Signal;HPM_P1;HPM_P2
2023/08/11 00:01:13;;;;;;;53.35;7.18;;;;;;;;;;5000472;28;20104;-66
2023/08/11 00:03:43;;;;;;;45.80;6.95;;;;;;;;;;4998614;28;20058;-55
2023/08/11 00:06:17;;;;;;;52.40;6.00;;;;;;;;;;4997160;28;20050;-51
2023/08/11 00:08:44;;;;;;;41.78;6.85;;;;;;;;;;4996076;28;20443;-55
2023/08/11 00:11:12;;;;;;;48.00;5.90;;;;;;;;;;4991065;28;20058;-55
2023/08/11 00:13:46;;;;;;;43.15;6.10;;;;;;;;;;4994838;28;20066;-54
2023/08/11 00:16:13;;;;;;;41.72;6.22;;;;;;;;;;4993559;28;20053;-55
2023/08/11 00:18:47;;;;;;;42.15;5.88;;;;;;;;;;4991773;28;20590;-55
2023/08/11 00:21:14;;;;;;;47.50;7.07;;;;;;;;;;4997467;28;20458;-50
2023/08/11 00:23:42;;;;;;;61.78;7.35;;;;;;;;;;4997150;28;20101;-51
2023/08/11 00:26:17;;;;;;;46.65;6.95;;;;;;;;;;4998248;28;20053;-48
2023/08/11 00:28:44;;;;;;;49.25;6.43;;;;;;;;;;4997774;28;20057;-51
2023/08/11 00:31:18;;;;;;;51.28;6.90;;;;;;;;;;4998635;28;20066;-59
2023/08/11 00:33:48;;;;;;;60.40;7.88;;;;;;;;;;4997104;28;20053;-57
2023/08/11 00:36:15;;;;;;;49.80;7.25;;;;;;;;;;4996927;28;20045;-70
2023/08/11 00:38:49;;;;;;;34.70;6.82;;;;;;;;;;4993700;28;20058;-70
2023/08/11 00:41:16;;;;;;;53.53;8.10;;;;;;;;;;4994976;28;20058;-68
2023/08/11 00:43:50;;;;;;;41.80;6.68;;;;;;;;;;4991257;28;21806;-71
2023/08/11 00:46:18;;;;;;;56.50;7.45;;;;;;;;;;4999116;28;20535;-70
2023/08/11 00:48:50;;;;;;;57.95;7.20;;;;;;;;;;4996007;28;20463;-70
2023/08/11 00:51:25;;;;;;;61.72;8.13;;;;;;;;;;4998732;28;20057;-59
2023/08/11 00:53:52;;;;;;;43.95;8.43;;;;;;;;;;4994737;28;20055;-60
2023/08/11 00:56:19;;;;;;;41.17;5.80;;;;;;;;;;4993343;28;20107;-60
2023/08/11 00:59:06;;;;;;;40.40;7.78;;;;;;;;;;4998866;28;20069;-60
2023/08/11 01:01:33;;;;;;;42.13;7.82;;;;;;;;;;4996394;28;20090;-52
2023/08/11 01:04:08;;;;;;;54.45;7.88;;;;;;;;;;4998380;28;20060;-57
2023/08/11 01:06:43;;;;;;;57.78;7.07;;;;;;;;;;4999796;28;20050;-55
2023/08/11 01:09:29;;;;;;;64.88;8.82;;;;;;;;;;4995957;28;20062;-57
2023/08/11 01:12:00;;;;;;;51.30;8.02;;;;;;;;;;4996411;28;20054;-55
2023/08/11 01:14:54;;;;;;;42.47;7.43;;;;;;;;;;4992791;28;20058;-57
2023/08/11 01:17:22;;;;;;;47.05;6.70;;;;;;;;;;4995471;28;20116;-57
2023/08/11 01:19:56;;;;;;;49.90;8.15;;;;;;;;;;4996486;28;20062;-59
2023/08/11 01:22:33;;;;;;;42.83;8.10;;;;;;;;;;4993669;28;20805;-60
2023/08/11 01:25:08;;;;;;;43.90;7.70;;;;;;;;;;4998389;28;20050;-59
2023/08/11 01:27:39;;;;;;;50.55;7.97;;;;;;;;;;4992567;28;20054;-59
2023/08/11 01:30:06;;;;;;;47.90;8.82;;;;;;;;;;4989969;28;20062;-60
2023/08/11 01:32:40;;;;;;;63.67;8.60;;;;;;;;;;4992667;28;20124;-54
2023/08/11 01:35:09;;;;;;;46.85;8.20;;;;;;;;;;4994198;28;20057;-55
2023/08/11 01:38:00;;;;;;;45.72;6.78;;;;;;;;;;4992896;28;20144;-57
2023/08/11 01:40:27;;;;;;;47.53;8.57;;;;;;;;;;4997929;28;20073;-55
2023/08/11 01:43:02;;;;;;;40.80;7.35;;;;;;;;;;4995633;28;20057;-56
2023/08/11 01:45:29;;;;;;;60.40;8.55;;;;;;;;;;4997989;28;20057;-53
2023/08/11 01:47:57;;;;;;;53.42;7.72;;;;;;;;;;4993731;28;20143;-67
2023/08/11 01:50:32;;;;;;;51.50;8.68;;;;;;;;;;4990599;28;20053;-69
2023/08/11 01:52:59;;;;;;;45.35;7.85;;;;;;;;;;4997651;28;20594;-69
2023/08/11 01:55:33;;;;;;;56.13;8.80;;;;;;;;;;4997131;28;20046;-69
2023/08/11 01:58:00;;;;;;;;;;;;;;;;;;4996979;28;20058;-52
2023/08/11 02:00:34;;;;;;;65.63;8.43;;;;;;;;;;4994385;28;19932;-56
2023/08/11 02:03:08;;;;;;;46.67;8.57;;;;;;;;;;4991364;28;20057;-56
2023/08/11 02:05:36;;;;;;;50.70;9.35;;;;;;;;;;4992772;28;20057;-58
2023/08/11 02:08:11;;;;;;;56.95;7.97;;;;;;;;;;4991768;28;20324;-56
2023/08/11 02:10:38;;;;;;;57.10;9.23;;;;;;;;;;4990455;28;20061;-56
2023/08/11 02:13:05;;;;;;;;;;;;;;;;;;4994668;28;20057;-55
2023/08/11 02:15:40;;;;;;;59.97;9.10;;;;;;;;;;4996722;28;19925;-53
2023/08/11 02:18:07;;;;;;;51.42;8.90;;;;;;;;;;4991187;28;20117;-51
2023/08/11 02:20:41;;;;;;;50.15;8.05;;;;;;;;;;4997091;28;20058;-54
2023/08/11 02:23:08;;;;;;;;;;;;;;;;;;5000571;28;20120;-50
2023/08/11 02:25:36;;;;;;;56.20;9.20;;;;;;;;;;5000465;28;19983;-60
2023/08/11 02:28:10;;;;;;;52.83;8.18;;;;;;;;;;4994425;28;20325;-70
2023/08/11 02:30:37;;;;;;;57.10;8.68;;;;;;;;;;4996133;28;20057;-68
2023/08/11 02:33:12;;;;;;;60.22;8.65;;;;;;;;;;5000702;28;20057;-69
2023/08/11 02:35:39;;;;;;;60.15;9.30;;;;;;;;;;5000691;28;20065;-69
2023/08/11 02:38:07;;;;;;;68.07;9.68;;;;;;;;;;4996548;28;20109;-69
2023/08/11 02:40:41;;;;;;;54.08;8.55;;;;;;;;;;5000858;28;20093;-68
2023/08/11 02:43:08;;;;;;;44.92;9.05;;;;;;;;;;4997348;28;20429;-69
2023/08/11 02:45:42;;;;;;;53.30;8.85;;;;;;;;;;4997699;28;20058;-69
2023/08/11 02:48:09;;;;;;;41.50;6.93;;;;;;;;;;4998059;28;20106;-68
2023/08/11 02:50:36;;;;;;;46.80;9.18;;;;;;;;;;4997984;28;20073;-66
2023/08/11 02:53:10;;;;;;;56.83;10.93;;;;;;;;;;4996243;28;20065;-56
2023/08/11 02:55:37;;;;;;;47.67;9.18;;;;;;;;;;4998120;28;20084;-51
2023/08/11 02:58:17;;;;;;;58.55;9.30;;;;;;;;;;5000896;28;20054;-52
2023/08/11 03:00:46;;;;;;;60.97;9.40;;;;;;;;;;5001747;28;20046;-52
2023/08/11 03:03:21;;;;;;;57.90;8.77;;;;;;;;;;4994798;28;20109;-55
2023/08/11 03:05:48;;;;;;;68.38;9.57;;;;;;;;;;4996294;28;20152;-50
2023/08/11 03:08:15;;;;;;;66.18;8.63;;;;;;;;;;5002531;28;20060;-54
2023/08/11 03:10:50;;;;;;;48.78;7.90;;;;;;;;;;4998783;28;20050;-51
2023/08/11 03:13:23;;;;;;;55.63;9.18;;;;;;;;;;4996345;28;20053;-52
2023/08/11 03:16:17;;;;;;;61.28;9.68;;;;;;;;;;5000155;28;20479;-50
2023/08/11 03:19:04;;;;;;;49.95;9.07;;;;;;;;;;4996390;28;20053;-47
2023/08/11 03:21:58;;;;;;;61.13;9.35;;;;;;;;;;4997629;28;20054;-59
2023/08/11 03:24:45;;;;;;;63.58;9.50;;;;;;;;;;5004309;28;20463;-58
2023/08/11 03:27:41;;;;;;;55.00;8.98;;;;;;;;;;4996610;28;20053;-59
2023/08/11 03:30:26;;;;;;;49.38;8.88;;;;;;;;;;4997844;28;20066;-60
2023/08/11 03:33:21;;;;;;;52.85;9.10;;;;;;;;;;4998322;28;20054;-60
2023/08/11 03:36:08;;;;;;;67.30;9.32;;;;;;;;;;4996989;28;20955;-59
2023/08/11 03:39:02;;;;;;;42.47;8.45;;;;;;;;;;4995389;28;20054;-59
2023/08/11 03:41:50;;;;;;;57.90;9.60;;;;;;;;;;4996630;28;20438;-51
2023/08/11 03:44:43;;;;;;;44.22;8.60;;;;;;;;;;4997055;28;20055;-50
2023/08/11 03:47:37;;;;;;;48.28;7.20;;;;;;;;;;4993888;28;20053;-48
2023/08/11 03:50:24;;;;;;;53.30;9.13;;;;;;;;;;4999115;28;20061;-55
2023/08/11 03:53:17;;;;;;;63.63;9.57;;;;;;;;;;4994568;28;20058;-57
2023/08/11 03:56:12;;;;;;;62.45;9.40;;;;;;;;;;4997539;28;20497;-55
2023/08/11 03:59:06;;;;;;;64.22;10.63;;;;;;;;;;5013385;28;20053;-55
2023/08/11 04:02:00;;;;;;;53.05;9.50;;;;;;;;;;5016265;28;20428;-54
2023/08/11 04:04:47;;;;;;;62.95;10.07;;;;;;;;;;5016502;28;20065;-56
2023/08/11 04:07:42;;;;;;;56.08;10.27;;;;;;;;;;5019683;28;20135;-53
2023/08/11 04:10:28;;;;;;;57.58;10.07;;;;;;;;;;5016700;28;20146;-59
2023/08/11 04:13:22;;;;;;;54.50;8.60;;;;;;;;;;5016306;28;20061;-59
2023/08/11 04:16:09;;;;;;;65.55;9.65;;;;;;;;;;5013750;28;20049;-59
2023/08/11 04:19:04;;;;;;;46.50;8.85;;;;;;;;;;5013716;28;20053;-58
2023/08/11 04:21:51;;;;;;;50.10;8.43;;;;;;;;;;5013994;28;20132;-56
2023/08/11 04:25:05;;;;;;;57.95;9.38;;;;;;;;;;5009942;28;20873;-57
2023/08/11 04:27:50;;;;;;;47.65;9.00;;;;;;;;;;5008782;28;20119;-56
2023/08/11 04:30:44;;;;;;;52.25;7.80;;;;;;;;;;5012961;28;20144;-56
2023/08/11 04:33:32;;;;;;;50.42;8.98;;;;;;;;;;5017187;28;20120;-56
2023/08/11 04:36:25;;;;;;;44.47;8.25;;;;;;;;;;5014078;28;20050;-56
2023/08/11 04:39:12;;;;;;;47.30;7.50;;;;;;;;;;5014644;28;20046;-48
2023/08/11 04:42:07;;;;;;;49.40;7.72;;;;;;;;;;5012368;28;20443;-52
2023/08/11 04:44:53;;;;;;;39.42;7.40;;;;;;;;;;5010095;28;20520;-52
2023/08/11 04:47:47;;;;;;;52.40;8.25;;;;;;;;;;5012196;28;20435;-67
2023/08/11 04:50:34;;;;;;;38.22;6.50;;;;;;;;;;5010024;28;20061;-57
2023/08/11 04:53:29;;;;;;;32.30;6.68;;;;;;;;;;5008114;28;20300;-55
2023/08/11 04:56:16;;;;;;;33.67;6.82;;;;;;;;;;5011611;28;20530;-58
2023/08/11 04:59:16;;;;;;;34.05;7.15;;;;;;;;;;5003857;28;20058;-56
2023/08/11 05:02:03;;;;;;;36.45;6.53;;;;;;;;;;4993018;28;20495;-55
2023/08/11 05:04:58;;;;;;;33.90;6.13;;;;;;;;;;4987361;28;20520;-55
2023/08/11 05:07:46;;;;;;;40.63;6.78;;;;;;;;;;4987176;28;20091;-58
2023/08/11 05:10:40;;;;;;;31.98;6.40;;;;;;;;;;4989533;28;20064;-57
2023/08/11 05:13:34;;;;;;;48.38;6.05;;;;;;;;;;4990413;28;20058;-57
2023/08/11 05:16:21;;;;;;;35.90;6.05;;;;;;;;;;4997389;28;20046;-52
2023/08/11 05:19:15;;;;;;;33.33;6.40;;;;;;;;;;4984647;28;20050;-54
2023/08/11 05:22:02;;;;;;;39.47;6.20;;;;;;;;;;4987270;28;20571;-54
2023/08/11 05:24:55;;;;;;;33.70;5.85;;;;;;;;;;4997433;28;20053;-53
2023/08/11 05:27:43;;;;;;;38.20;6.72;;;;;;;;;;4993576;28;20057;-54
2023/08/11 05:30:37;;;;;;;22.30;5.72;;;;;;;;;;4992821;28;20494;-55
2023/08/11 05:33:27;;;;;;;34.53;5.75;;;;;;;;;;4992137;28;20185;-52
2023/08/11 05:36:21;;;;;;;32.67;5.88;;;;;;;;;;4991486;28;20736;-53
2023/08/11 05:39:10;;;;;;;35.97;6.18;;;;;;;;;;4993176;28;20082;-53
2023/08/11 05:42:07;;;;;;;33.00;6.30;;;;;;;;;;4994700;28;20093;-48
2023/08/11 05:44:54;;;;;;;31.88;6.28;;;;;;;;;;4993256;28;20393;-67
2023/08/11 05:47:48;;;;;;;31.70;5.82;;;;;;;;;;4992673;28;20064;-53
2023/08/11 05:50:36;;;;;;;31.52;6.35;;;;;;;;;;4990097;28;20140;-55
2023/08/11 05:53:30;;;;;;;29.85;6.15;;;;;;;;;;4992506;28;20109;-57
2023/08/11 05:56:20;;;;;;;35.35;5.85;;;;;;;;;;4997930;28;20140;-57
2023/08/11 05:59:21;;;;;;;38.92;5.93;;;;;;;;;;4996639;28;20527;-57
2023/08/11 06:02:08;;;;;;;23.90;5.50;;;;;;;;;;4993910;28;20065;-55
2023/08/11 06:05:02;;;;;;;31.77;5.05;;;;;;;;;;4995817;28;20050;-57
2023/08/11 06:07:50;;;;;;;31.73;5.32;;;;;;;;;;4989961;28;20170;-56
2023/08/11 06:10:44;;;;;;;23.75;4.88;;;;;;;;;;4992282;28;20047;-56
2023/08/11 06:13:31;;;;;;;30.15;5.00;;;;;;;;;;4992703;28;20054;-60
2023/08/11 06:16:24;;;;;;;34.97;4.72;;;;;;;;;;4997255;28;20113;-68
2023/08/11 06:19:12;;;;;;;25.38;4.38;;;;;;;;;;4991216;28;20108;-67
2023/08/11 06:22:06;;;;;;;24.92;3.80;;;;;;;;;;4990199;28;20082;-68
2023/08/11 06:24:54;;;;;;;26.60;4.47;;;;;;;;;;4996454;28;20090;-68
2023/08/11 06:27:47;;;;;;;25.27;3.60;;;;;;;;;;4994489;28;20042;-67
2023/08/11 06:30:37;;;;;;;24.67;4.32;;;;;;;;;;4993294;28;20070;-58
2023/08/11 06:33:31;;;;;;;16.67;3.38;;;;;;;;;;4992802;28;20045;-57
2023/08/11 06:36:18;;;;;;;22.52;3.88;;;;;;;;;;4993345;28;20491;-57
2023/08/11 06:39:12;;;;;;;16.85;3.35;;;;;;;;;;4988356;28;20050;-58
2023/08/11 06:42:00;;;;;;;22.15;3.65;;;;;;;;;;4989935;28;20109;-53
2023/08/11 06:44:54;;;;;;;19.98;3.83;;;;;;;;;;4993644;28;20057;-61
2023/08/11 06:47:41;;;;;;;24.70;3.75;;;;;;;;;;4995175;28;20049;-61
2023/08/11 06:50:35;;;;;;;13.15;2.97;;;;;;;;;;4992482;28;20048;-61
2023/08/11 06:53:22;;;;;;;23.67;3.40;;;;;;;;;;4996521;28;20141;-60
2023/08/11 06:56:16;;;;;;;17.95;3.13;;;;;;;;;;4994978;28;20053;-61
2023/08/11 06:59:11;;;;;;;12.27;2.33;;;;;;;;;;4997572;28;20057;-67
2023/08/11 07:02:06;;;;;;;13.68;2.67;;;;;;;;;;4995478;28;20836;-67
2023/08/11 07:04:54;;;;;;;16.70;2.40;;;;;;;;;;4996180;28;20050;-67
2023/08/11 07:07:48;;;;;;;16.90;2.50;;;;;;;;;;4995899;28;20065;-67
2023/08/11 07:10:35;;;;;;;11.18;2.30;;;;;;;;;;4995747;28;20054;-58
2023/08/11 07:13:29;;;;;;;13.10;2.30;;;;;;;;;;4995990;28;20132;-61
2023/08/11 07:16:16;;;;;;;10.88;2.25;;;;;;;;;;4996292;28;20145;-61
2023/08/11 07:19:10;;;;;;;13.25;2.63;;;;;;;;;;4993294;28;20596;-61
2023/08/11 07:21:57;;;;;;;10.05;2.25;;;;;;;;;;4995066;28;20061;-61
2023/08/11 07:24:51;;;;;;;13.82;2.50;;;;;;;;;;4998339;28;20515;-61
2023/08/11 07:27:44;;;;;;;16.42;2.25;;;;;;;;;;4997028;28;20050;-66
2023/08/11 07:30:39;;;;;;;8.38;2.10;;;;;;;;;;4994882;28;20532;-66
2023/08/11 07:33:27;;;;;;;14.82;2.38;;;;;;;;;;4995490;28;20066;-66
2023/08/11 07:36:20;;;;;;;11.98;2.78;;;;;;;;;;4995404;28;20488;-66
2023/08/11 07:39:12;;;;;;;10.00;2.33;;;;;;;;;;4996674;28;20068;-67
2023/08/11 07:42:04;;;;;;;11.13;2.53;;;;;;;;;;4998951;28;20141;-61
2023/08/11 07:44:54;;;;;;;14.15;2.75;;;;;;;;;;4991530;28;20049;-61
2023/08/11 07:47:48;;;;;;;10.15;2.63;;;;;;;;;;4995680;28;20121;-61
2023/08/11 07:50:38;;;;;;;11.35;2.00;;;;;;;;;;4998651;28;20049;-61
2023/08/11 07:53:32;;;;;;;11.48;1.88;;;;;;;;;;4995015;28;20061;-61
2023/08/11 07:56:19;;;;;;;9.02;2.17;;;;;;;;;;5002047;28;20102;-59
2023/08/11 07:59:19;;;;;;;4.40;1.42;;;;;;;;;;4996475;28;20045;-60
2023/08/11 08:02:07;;;;;;;13.95;2.45;;;;;;;;;;4998423;28;20107;-60
2023/08/11 08:05:01;;;;;;;6.20;1.83;;;;;;;;;;4998911;28;20801;-60
2023/08/11 08:07:49;;;;;;;9.57;2.05;;;;;;;;;;4994215;28;20062;-66
2023/08/11 08:10:43;;;;;;;10.93;1.80;;;;;;;;;;4995901;28;20064;-61
2023/08/11 08:13:37;;;;;;;6.88;1.85;;;;;;;;;;4984252;28;20145;-61
2023/08/11 08:16:24;;;;;;;6.80;1.52;;;;;;;;;;4996500;28;20062;-61
2023/08/11 08:19:20;;;;;;;11.45;1.90;;;;;;;;;;4993464;28;20072;-61
2023/08/11 08:22:05;;;;;;;7.80;1.73;;;;;;;;;;4995764;28;20050;-61
2023/08/11 08:24:59;;;;;;;8.30;2.03;;;;;;;;;;4995369;28;20112;-58
2023/08/11 08:27:46;;;;;;;6.43;1.83;;;;;;;;;;5001376;28;20058;-59
2023/08/11 08:30:41;;;;;;;7.55;2.00;;;;;;;;;;4993695;28;21653;-59
2023/08/11 08:33:43;;;;;;;6.47;1.88;;;;;;;;;;4996317;28;20054;-57
2023/08/11 08:36:42;;;;;;;9.18;1.75;;;;;;;;;;4996321;28;20050;-59
2023/08/11 08:39:30;;;;;;;9.48;1.98;;;;;;;;;;4992091;28;20042;-58
2023/08/11 08:42:25;;;;;;;10.30;1.73;;;;;;;;;;4994189;28;20061;-58
2023/08/11 08:45:12;;;;;;;;;;;;;;;;;;4998971;28;20046;-58
2023/08/11 08:48:08;;;;;;;11.95;2.00;;;;;;;;;;4994778;28;20399;-59
2023/08/11 08:50:55;;;;;;;7.32;1.80;;;;;;;;;;4995245;28;20140;-58
2023/08/11 08:53:49;;;;;;;10.32;1.80;;;;;;;;;;4991141;28;20065;-50
2023/08/11 08:56:40;;;;;;;4.65;1.88;;;;;;;;;;4992475;28;20081;-50
2023/08/11 08:59:44;;;;;;;14.20;2.55;;;;;;;;;;4995795;28;20054;-50
2023/08/11 09:02:39;;;;;;;7.63;1.35;;;;;;;;;;4996857;28;20054;-53
2023/08/11 09:05:33;;;;;;;8.73;1.58;;;;;;;;;;4997527;28;20060;-53
2023/08/11 09:08:21;;;;;;;7.53;1.95;;;;;;;;;;4990250;28;20056;-50
2023/08/11 09:11:15;;;;;;;6.68;1.90;;;;;;;;;;4996734;28;20053;-52
2023/08/11 09:14:03;;;;;;;4.88;1.48;;;;;;;;;;4994896;28;20050;-50
2023/08/11 09:17:00;;;;;;;7.47;1.77;;;;;;;;;;4991580;28;20589;-50
2023/08/11 09:19:51;;;;;;;7.05;1.35;;;;;;;;;;5000468;28;20870;-52
2023/08/11 09:22:44;;;;;;;6.88;1.60;;;;;;;;;;4994072;28;20057;-56
2023/08/11 09:25:37;;;;;;;6.43;1.52;;;;;;;;;;4993568;28;20053;-54
2023/08/11 09:28:32;;;;;;;8.80;1.98;;;;;;;;;;4993658;28;20085;-54
2023/08/11 09:31:26;;;;;;;7.32;1.70;;;;;;;;;;4995185;28;20499;-51
2023/08/11 09:34:20;;;;;;;10.20;1.80;;;;;;;;;;4992939;28;20591;-58
2023/08/11 09:37:08;;;;;;;10.55;2.08;;;;;;;;;;4992411;28;20565;-55
2023/08/11 09:40:04;;;;;;;12.00;2.35;;;;;;;;;;4990437;28;20067;-52
2023/08/11 09:42:49;;;;;;;7.78;1.88;;;;;;;;;;4993061;28;20057;-54
2023/08/11 09:45:43;;;;;;;7.90;1.80;;;;;;;;;;4991926;28;20050;-54
2023/08/11 09:48:31;;;;;;;13.82;2.15;;;;;;;;;;4996329;28;20061;-54
2023/08/11 09:51:24;;;;;;;7.80;1.92;;;;;;;;;;4994577;28;20339;-61
2023/08/11 09:54:13;;;;;;;7.22;1.90;;;;;;;;;;4993127;28;20049;-62
2023/08/11 09:57:06;;;;;;;5.15;1.40;;;;;;;;;;4994706;28;20852;-62
2023/08/11 10:00:01;;;;;;;5.80;1.90;;;;;;;;;;4993731;28;20045;-52
2023/08/11 10:03:10;;;;;;;5.22;1.30;;;;;;;;;;4995555;28;20585;-54
2023/08/11 10:05:59;;;;;;;7.00;1.98;;;;;;;;;;4997843;28;20069;-60
2023/08/11 10:08:54;;;;;;;9.60;1.73;;;;;;;;;;4990691;28;20054;-60
2023/08/11 10:11:43;;;;;;;7.45;1.80;;;;;;;;;;4997337;28;20114;-60
2023/08/11 10:14:39;;;;;;;11.00;1.92;;;;;;;;;;4995745;28;20089;-60
2023/08/11 10:17:26;;;;;;;8.43;1.92;;;;;;;;;;4994669;28;20073;-60
2023/08/11 10:20:20;;;;;;;7.32;2.22;;;;;;;;;;4994385;28;20065;-52
2023/08/11 10:23:08;;;;;;;11.57;1.98;;;;;;;;;;4992727;28;20058;-52
2023/08/11 10:26:02;;;;;;;11.75;2.50;;;;;;;;;;4994165;28;20050;-52
2023/08/11 10:28:51;;;;;;;9.70;1.95;;;;;;;;;;4990839;28;20075;-65
2023/08/11 10:31:55;;;;;;;10.35;1.90;;;;;;;;;;4995594;28;20054;-64
2023/08/11 10:34:42;;;;;;;6.65;2.15;;;;;;;;;;4991718;28;20605;-65
2023/08/11 10:37:36;;;;;;;14.07;2.40;;;;;;;;;;4993066;28;20053;-65
2023/08/11 10:40:23;;;;;;;5.63;1.63;;;;;;;;;;4996261;28;20057;-64
2023/08/11 10:43:18;;;;;;;7.40;2.40;;;;;;;;;;4996209;28;20524;-64
2023/08/11 10:46:18;;;;;;;9.05;2.30;;;;;;;;;;4995105;28;20333;-65
2023/08/11 10:49:11;;;;;;;6.95;2.10;;;;;;;;;;4996603;28;20196;-51
2023/08/11 10:51:59;;;;;;;12.48;2.25;;;;;;;;;;4997153;28;20058;-53
2023/08/11 10:54:53;;;;;;;15.48;2.47;;;;;;;;;;4994445;28;20117;-54
2023/08/11 10:57:40;;;;;;;11.95;2.13;;;;;;;;;;4999127;28;21345;-52
2023/08/11 11:00:41;;;;;;;9.45;2.40;;;;;;;;;;4998508;28;20153;-57
2023/08/11 11:03:28;;;;;;;12.07;2.42;;;;;;;;;;5000311;28;20054;-57
2023/08/11 11:06:22;;;;;;;10.25;2.00;;;;;;;;;;4998743;28;20066;-54
2023/08/11 11:09:09;;;;;;;9.50;2.10;;;;;;;;;;4996834;28;20075;-57
2023/08/11 11:12:03;;;;;;;10.70;1.95;;;;;;;;;;4999673;28;20101;-53
2023/08/11 11:14:50;;;;;;;7.03;2.03;;;;;;;;;;4997549;28;20042;-53
2023/08/11 11:17:44;;;;;;;11.50;1.90;;;;;;;;;;4999157;28;20712;-61
2023/08/11 11:20:31;;;;;;;7.88;1.65;;;;;;;;;;4998819;28;20046;-61
2023/08/11 11:23:25;;;;;;;8.30;1.90;;;;;;;;;;4996936;28;20515;-61
2023/08/11 11:26:15;;;;;;;11.90;2.40;;;;;;;;;;5002567;28;20137;-59
2023/08/11 11:29:08;;;;;;;5.88;2.13;;;;;;;;;;4999857;28;20057;-61
2023/08/11 11:31:56;;;;;;;8.23;1.75;;;;;;;;;;4998449;28;20050;-60
2023/08/11 11:34:49;;;;;;;13.25;2.28;;;;;;;;;;4998148;28;20056;-61
2023/08/11 11:37:37;;;;;;;8.07;1.73;;;;;;;;;;4997206;28;20057;-60
2023/08/11 11:40:31;;;;;;;9.05;2.10;;;;;;;;;;4997075;28;20144;-60
2023/08/11 11:43:19;;;;;;;9.52;2.17;;;;;;;;;;4998693;28;20054;-60
2023/08/11 11:46:15;;;;;;;9.93;1.90;;;;;;;;;;5001170;28;20157;-59
2023/08/11 11:49:03;;;;;;;7.10;2.30;;;;;;;;;;4996964;28;20054;-57
2023/08/11 11:51:58;;;;;;;7.90;2.13;;;;;;;;;;4998797;28;20146;-57
2023/08/11 11:54:50;;;;;;;9.27;2.10;;;;;;;;;;4997566;28;20064;-57
2023/08/11 11:57:44;;;;;;;8.85;1.92;;;;;;;;;;4993711;28;20128;-55
2023/08/11 12:00:39;;;;;;;8.20;1.67;;;;;;;;;;4998881;28;20058;-55
2023/08/11 12:03:32;;;;;;;8.50;1.90;;;;;;;;;;4998375;28;20058;-54
2023/08/11 12:06:20;;;;;;;6.82;1.75;;;;;;;;;;4995355;28;20046;-56
2023/08/11 12:09:14;;;;;;;11.40;1.77;;;;;;;;;;4997661;28;20582;-56
2023/08/11 12:12:04;;;;;;;7.68;2.00;;;;;;;;;;4998165;28;20610;-64
2023/08/11 12:15:02;;;;;;;10.70;2.65;;;;;;;;;;4990948;28;20391;-65
2023/08/11 12:17:49;;;;;;;9.73;2.35;;;;;;;;;;4999387;28;20050;-66
2023/08/11 12:20:44;;;;;;;9.00;2.30;;;;;;;;;;4998776;28;20109;-67
2023/08/11 12:23:31;;;;;;;;;;;;;;;;;;4995733;28;20552;-52
2023/08/11 12:26:25;;;;;;;13.48;2.47;;;;;;;;;;4995688;28;19928;-61
2023/08/11 12:29:12;;;;;;;12.98;2.30;;;;;;;;;;4992567;28;20511;-61
2023/08/11 12:32:06;;;;;;;10.50;2.25;;;;;;;;;;4987527;28;20641;-60
2023/08/11 12:34:53;;;;;;;10.68;2.50;;;;;;;;;;4996512;28;20089;-60
2023/08/11 12:37:47;;;;;;;11.40;2.60;;;;;;;;;;4990769;28;20050;-61
2023/08/11 12:40:35;;;;;;;11.15;2.10;;;;;;;;;;4994052;28;20096;-60
2023/08/11 12:43:28;;;;;;;8.88;1.98;;;;;;;;;;4994115;28;20073;-60
2023/08/11 12:46:15;;;;;;;8.30;1.90;;;;;;;;;;4995493;28;20097;-60
2023/08/11 12:49:09;;;;;;;14.18;2.28;;;;;;;;;;4993857;28;20537;-61
2023/08/11 12:51:56;;;;;;;11.40;1.80;;;;;;;;;;4994201;28;20054;-59
2023/08/11 12:54:50;;;;;;;5.72;1.95;;;;;;;;;;4995770;28;20061;-59
2023/08/11 12:57:37;;;;;;;10.45;2.40;;;;;;;;;;4996417;28;20102;-58
2023/08/11 13:00:38;;;;;;;12.48;2.35;;;;;;;;;;4996684;28;20049;-59
2023/08/11 13:03:25;;;;;;;8.10;1.92;;;;;;;;;;4998249;28;20065;-59
2023/08/11 13:06:19;;;;;;;8.93;2.25;;;;;;;;;;4996729;28;20057;-59
2023/08/11 13:09:11;;;;;;;8.82;2.30;;;;;;;;;;4992581;28;20597;-62
2023/08/11 13:12:04;;;;;;;10.82;2.15;;;;;;;;;;4991050;28;20074;-62
2023/08/11 13:14:52;;;;;;;8.25;2.00;;;;;;;;;;4992037;28;20051;-62
2023/08/11 13:17:45;;;;;;;12.10;2.20;;;;;;;;;;4995766;28;20054;-61
2023/08/11 13:20:32;;;;;;;8.90;2.10;;;;;;;;;;4991848;28;20058;-65
2023/08/11 13:23:29;;;;;;;7.88;2.22;;;;;;;;;;4995061;28;20062;-60
2023/08/11 13:26:13;;;;;;;10.43;2.15;;;;;;;;;;4991474;28;20586;-61
2023/08/11 13:29:07;;;;;;;12.02;2.55;;;;;;;;;;4991132;28;20528;-61
2023/08/11 13:31:54;;;;;;;13.32;2.53;;;;;;;;;;4993156;28;20070;-61
2023/08/11 13:34:48;;;;;;;8.38;2.40;;;;;;;;;;4997465;28;20066;-60
2023/08/11 13:37:35;;;;;;;5.97;1.70;;;;;;;;;;4993641;28;20058;-60
2023/08/11 13:40:29;;;;;;;10.38;2.17;;;;;;;;;;4992377;28;20046;-59
2023/08/11 13:43:19;;;;;;;11.73;2.33;;;;;;;;;;4992568;28;20065;-59
2023/08/11 13:46:10;;;;;;;9.85;2.22;;;;;;;;;;4994161;28;20058;-59
2023/08/11 13:49:04;;;;;;;11.77;1.83;;;;;;;;;;4994953;28;20045;-58
2023/08/11 13:51:58;;;;;;;9.57;2.65;;;;;;;;;;4993393;28;20057;-60
2023/08/11 13:54:58;;;;;;;13.88;2.70;;;;;;;;;;4999002;28;20430;-61
2023/08/11 13:57:52;;;;;;;12.35;2.63;;;;;;;;;;4992286;28;20109;-60
2023/08/11 14:00:47;;;;;;;9.98;2.20;;;;;;;;;;4998296;28;20042;-61
2023/08/11 14:03:39;;;;;;;8.98;2.00;;;;;;;;;;4995314;28;20054;-60
2023/08/11 14:06:26;;;;;;;11.50;2.35;;;;;;;;;;4997729;28;20058;-51
2023/08/11 14:09:20;;;;;;;13.30;2.38;;;;;;;;;;4995452;28;20149;-47
2023/08/11 14:12:07;;;;;;;11.00;2.13;;;;;;;;;;4993296;28;20050;-52
2023/08/11 14:15:01;;;;;;;5.95;1.85;;;;;;;;;;4994635;28;20137;-49
2023/08/11 14:17:48;;;;;;;14.18;2.20;;;;;;;;;;4994421;28;20060;-65
2023/08/11 14:20:43;;;;;;;12.10;2.13;;;;;;;;;;4999612;28;20658;-52
2023/08/11 14:23:29;;;;;;;7.03;1.85;;;;;;;;;;4992440;28;20054;-54
2023/08/11 14:26:23;;;;;;;7.53;1.75;;;;;;;;;;4991348;28;20058;-52
2023/08/11 14:29:10;;;;;;;7.65;1.80;;;;;;;;;;4996946;28;20078;-54
2023/08/11 14:32:04;;;;;;;9.82;2.13;;;;;;;;;;4997722;28;20100;-53
2023/08/11 14:34:52;;;;;;;;;;;;;;;;;;4997934;28;20054;-59
2023/08/11 14:37:46;;;;;;;6.30;1.90;;;;;;;;;;4995717;28;20016;-59
2023/08/11 14:40:33;;;;;;;11.30;2.38;;;;;;;;;;4995759;28;20541;-59
2023/08/11 14:43:27;;;;;;;8.10;1.98;;;;;;;;;;4998218;28;20081;-59
2023/08/11 14:46:14;;;;;;;5.72;1.80;;;;;;;;;;4999369;28;20054;-57
2023/08/11 14:49:08;;;;;;;8.73;2.22;;;;;;;;;;4996390;28;20050;-60
2023/08/11 14:51:55;;;;;;;6.18;1.92;;;;;;;;;;4998777;28;20097;-61
2023/08/11 14:54:49;;;;;;;11.80;2.47;;;;;;;;;;5000914;28;20057;-61
2023/08/11 14:57:36;;;;;;;9.98;2.08;;;;;;;;;;4997713;28;20050;-61
2023/08/11 15:00:37;;;;;;;8.95;2.53;;;;;;;;;;4998155;28;20053;-60
2023/08/11 15:03:24;;;;;;;11.00;2.22;;;;;;;;;;4996077;28;20832;-58
2023/08/11 15:06:18;;;;;;;10.95;2.22;;;;;;;;;;4995819;28;20511;-57
2023/08/11 15:09:05;;;;;;;7.15;1.77;;;;;;;;;;4996783;28;20581;-57
2023/08/11 15:11:59;;;;;;;11.57;1.98;;;;;;;;;;4999674;28;20586;-56
2023/08/11 15:14:46;;;;;;;8.82;2.00;;;;;;;;;;4994534;28;20050;-53
2023/08/11 15:17:40;;;;;;;6.38;2.30;;;;;;;;;;4998352;28;20530;-51
2023/08/11 15:20:29;;;;;;;6.65;1.90;;;;;;;;;;4996927;28;20057;-48
2023/08/11 15:23:21;;;;;;;12.07;2.45;;;;;;;;;;4994985;28;20062;-51
2023/08/11 15:26:09;;;;;;;10.63;2.45;;;;;;;;;;4993753;28;20117;-52
2023/08/11 15:29:02;;;;;;;9.55;2.30;;;;;;;;;;4994905;28;20053;-51
2023/08/11 15:31:49;;;;;;;14.07;2.40;;;;;;;;;;4994634;28;20085;-55
2023/08/11 15:34:43;;;;;;;10.55;2.80;;;;;;;;;;4998086;28;20538;-51
2023/08/11 15:37:30;;;;;;;7.15;2.25;;;;;;;;;;4996946;28;20447;-56
2023/08/11 15:40:24;;;;;;;12.45;2.10;;;;;;;;;;4995288;28;20062;-54
2023/08/11 15:43:11;;;;;;;12.02;2.58;;;;;;;;;;4997315;28;20919;-49
2023/08/11 15:46:05;;;;;;;9.55;2.63;;;;;;;;;;4997062;28;20563;-61
2023/08/11 15:48:53;;;;;;;14.85;2.65;;;;;;;;;;4998250;28;20692;-61
2023/08/11 15:51:46;;;;;;;8.82;2.50;;;;;;;;;;4997472;28;20053;-61
2023/08/11 15:54:34;;;;;;;11.75;2.58;;;;;;;;;;4997432;28;20069;-61
2023/08/11 15:57:28;;;;;;;8.93;2.28;;;;;;;;;;4994999;28;20057;-61
2023/08/11 16:00:22;;;;;;;12.15;2.50;;;;;;;;;;4999124;28;20530;-61
2023/08/11 16:03:16;;;;;;;11.90;2.05;;;;;;;;;;4994981;28;20049;-61
2023/08/11 16:06:09;;;;;;;18.80;2.75;;;;;;;;;;4998629;28;20076;-61
2023/08/11 16:09:03;;;;;;;13.73;2.70;;;;;;;;;;4995138;28;20049;-61
2023/08/11 16:11:52;;;;;;;12.85;2.55;;;;;;;;;;4996168;28;20053;-66
2023/08/11 16:14:44;;;;;;;10.07;2.25;;;;;;;;;;4997402;28;20439;-59
2023/08/11 16:17:38;;;;;;;11.77;2.35;;;;;;;;;;4993148;28;20065;-59
2023/08/11 16:20:25;;;;;;;10.80;2.20;;;;;;;;;;5000381;28;20081;-56
2023/08/11 16:23:19;;;;;;;10.32;2.45;;;;;;;;;;4993543;28;20058;-59
2023/08/11 16:26:07;;;;;;;11.07;2.40;;;;;;;;;;4992419;28;20152;-57
2023/08/11 16:29:00;;;;;;;7.57;2.10;;;;;;;;;;4990899;28;20136;-60
2023/08/11 16:31:47;;;;;;;13.25;2.80;;;;;;;;;;4988275;28;20050;-60
2023/08/11 16:34:41;;;;;;;15.52;3.10;;;;;;;;;;4992473;28;20285;-60